sensor_id;sensor_type;location;lat;lon;timestamp;P1;durP1;ratioP1;P2;durP2;ratioP2
28627;SDS011;15815;46.760;19.604;2022-09-14T00:01:26;9.95;;;2.25;;
28627;SDS011;15815;46.760;19.604;2022-09-14T00:03:55;2.35;;;1.88;;
28627;SDS011;15815;46.760;19.604;2022-09-14T00:06:40;5.07;;;2.40;;
28627;SDS011;15815;46.760;19.604;2022-09-14T00:09:07;6.05;;;2.15;;
28627;SDS011;15815;46.760;19.604;2022-09-14T00:11:35;5.15;;;2.10;;
28627;SDS011;15815;46.760;19.604;2022-09-14T00:14:02;5.43;;;1.90;;
28627;SDS011;15815;46.760;19.604;2022-09-14T00:16:29;3.20;;;2.20;;
28627;SDS011;15815;46.760;19.604;2022-09-14T00:18:57;7.30;;;2.60;;
28627;SDS011;15815;46.760;19.604;2022-09-14T00:21:24;5.13;;;2.22;;
28627;SDS011;15815;46.760;19.604;2022-09-14T00:23:51;5.50;;;2.28;;
28627;SDS011;15815;46.760;19.604;2022-09-14T00:26:18;4.32;;;2.70;;
28627;SDS011;15815;46.760;19.604;2022-09-14T00:28:47;4.03;;;2.33;;
28627;SDS011;15815;46.760;19.604;2022-09-14T00:31:14;3.35;;;2.40;;
28627;SDS011;15815;46.760;19.604;2022-09-14T00:33:41;6.15;;;2.10;;
28627;SDS011;15815;46.760;19.604;2022-09-14T00:36:09;8.23;;;2.45;;
28627;SDS011;15815;46.760;19.604;2022-09-14T00:38:36;8.73;;;2.70;;
28627;SDS011;15815;46.760;19.604;2022-09-14T00:41:03;5.00;;;2.45;;
28627;SDS011;15815;46.760;19.604;2022-09-14T00:43:30;4.60;;;2.83;;
28627;SDS011;15815;46.760;19.604;2022-09-14T00:45:56;25.17;;;3.22;;
28627;SDS011;15815;46.760;19.604;2022-09-14T00:48:25;4.72;;;2.47;;
28627;SDS011;15815;46.760;19.604;2022-09-14T00:50:52;3.60;;;2.30;;
28627;SDS011;15815;46.760;19.604;2022-09-14T00:53:18;5.15;;;2.50;;
28627;SDS011;15815;46.760;19.604;2022-09-14T00:55:43;4.38;;;2.33;;
28627;SDS011;15815;46.760;19.604;2022-09-14T00:58:09;4.85;;;2.45;;
28627;SDS011;15815;46.760;19.604;2022-09-14T01:00:35;5.45;;;2.45;;
28627;SDS011;15815;46.760;19.604;2022-09-14T01:03:00;11.00;;;2.80;;
28627;SDS011;15815;46.760;19.604;2022-09-14T01:05:30;3.80;;;2.30;;
28627;SDS011;15815;46.760;19.604;2022-09-14T01:08:30;4.70;;;2.50;;
28627;SDS011;15815;46.760;19.604;2022-09-14T01:28:00;3.72;;;2.60;;
28627;SDS011;15815;46.760;19.604;2022-09-14T01:30:33;15.20;;;3.17;;
28627;SDS011;15815;46.760;19.604;2022-09-14T01:33:17;18.48;;;3.30;;
28627;SDS011;15815;46.760;19.604;2022-09-14T01:35:50;5.10;;;2.50;;
28627;SDS011;15815;46.760;19.604;2022-09-14T01:38:21;6.82;;;2.55;;
28627;SDS011;15815;46.760;19.604;2022-09-14T01:40:53;6.72;;;2.45;;
28627;SDS011;15815;46.760;19.604;2022-09-14T01:43:23;3.42;;;2.60;;
28627;SDS011;15815;46.760;19.604;2022-09-14T01:45:56;5.93;;;2.70;;
28627;SDS011;15815;46.760;19.604;2022-09-14T01:48:30;6.55;;;2.42;;
28627;SDS011;15815;46.760;19.604;2022-09-14T01:51:00;8.73;;;3.03;;
28627;SDS011;15815;46.760;19.604;2022-09-14T01:56:40;5.45;;;2.63;;
28627;SDS011;15815;46.760;19.604;2022-09-14T01:59:14;4.70;;;2.58;;
28627;SDS011;15815;46.760;19.604;2022-09-14T02:04:38;3.10;;;2.75;;
28627;SDS011;15815;46.760;19.604;2022-09-14T02:07:09;4.40;;;2.28;;
28627;SDS011;15815;46.760;19.604;2022-09-14T02:09:35;4.72;;;3.10;;
28627;SDS011;15815;46.760;19.604;2022-09-14T02:12:00;4.22;;;2.30;;
28627;SDS011;15815;46.760;19.604;2022-09-14T02:14:26;5.07;;;2.95;;
28627;SDS011;15815;46.760;19.604;2022-09-14T02:16:52;6.93;;;2.75;;
28627;SDS011;15815;46.760;19.604;2022-09-14T02:19:18;3.95;;;2.70;;
28627;SDS011;15815;46.760;19.604;2022-09-14T02:21:43;11.55;;;3.30;;
28627;SDS011;15815;46.760;19.604;2022-09-14T02:24:09;7.63;;;2.65;;
28627;SDS011;15815;46.760;19.604;2022-09-14T02:26:36;12.02;;;3.10;;
28627;SDS011;15815;46.760;19.604;2022-09-14T02:29:02;9.75;;;2.80;;
28627;SDS011;15815;46.760;19.604;2022-09-14T02:34:12;10.75;;;2.80;;
28627;SDS011;15815;46.760;19.604;2022-09-14T02:45:03;6.22;;;3.50;;
28627;SDS011;15815;46.760;19.604;2022-09-14T02:47:45;4.18;;;2.85;;
28627;SDS011;15815;46.760;19.604;2022-09-14T02:56:18;4.05;;;2.95;;
28627;SDS011;15815;46.760;19.604;2022-09-14T02:58:45;5.75;;;2.97;;
28627;SDS011;15815;46.760;19.604;2022-09-14T03:01:12;6.50;;;2.88;;
28627;SDS011;15815;46.760;19.604;2022-09-14T03:03:45;8.95;;;3.80;;
28627;SDS011;15815;46.760;19.604;2022-09-14T03:06:11;4.07;;;2.80;;
28627;SDS011;15815;46.760;19.604;2022-09-14T03:08:36;4.68;;;2.70;;
28627;SDS011;15815;46.760;19.604;2022-09-14T03:11:02;5.85;;;2.88;;
28627;SDS011;15815;46.760;19.604;2022-09-14T03:13:27;5.10;;;2.90;;
28627;SDS011;15815;46.760;19.604;2022-09-14T03:15:53;9.32;;;3.03;;
28627;SDS011;15815;46.760;19.604;2022-09-14T03:18:18;6.72;;;4.05;;
28627;SDS011;15815;46.760;19.604;2022-09-14T03:20:44;5.28;;;2.95;;
28627;SDS011;15815;46.760;19.604;2022-09-14T03:23:10;7.60;;;3.22;;
28627;SDS011;15815;46.760;19.604;2022-09-14T03:25:37;7.18;;;2.80;;
28627;SDS011;15815;46.760;19.604;2022-09-14T03:28:04;5.93;;;2.72;;
28627;SDS011;15815;46.760;19.604;2022-09-14T03:30:29;5.05;;;3.47;;
28627;SDS011;15815;46.760;19.604;2022-09-14T03:32:56;8.43;;;3.40;;
28627;SDS011;15815;46.760;19.604;2022-09-14T03:35:22;9.82;;;4.03;;
28627;SDS011;15815;46.760;19.604;2022-09-14T03:37:48;6.80;;;3.17;;
28627;SDS011;15815;46.760;19.604;2022-09-14T03:40:14;11.93;;;3.58;;
28627;SDS011;15815;46.760;19.604;2022-09-14T03:42:44;5.93;;;3.45;;
28627;SDS011;15815;46.760;19.604;2022-09-14T03:45:11;5.32;;;3.47;;
28627;SDS011;15815;46.760;19.604;2022-09-14T03:47:38;13.23;;;3.20;;
28627;SDS011;15815;46.760;19.604;2022-09-14T03:50:04;13.07;;;4.03;;
28627;SDS011;15815;46.760;19.604;2022-09-14T03:52:32;4.45;;;3.40;;
28627;SDS011;15815;46.760;19.604;2022-09-14T03:54:58;4.45;;;3.28;;
28627;SDS011;15815;46.760;19.604;2022-09-14T03:57:23;7.10;;;3.22;;
28627;SDS011;15815;46.760;19.604;2022-09-14T03:59:48;8.73;;;3.08;;
28627;SDS011;15815;46.760;19.604;2022-09-14T04:02:14;5.50;;;3.90;;
28627;SDS011;15815;46.760;19.604;2022-09-14T04:04:39;6.72;;;3.50;;
28627;SDS011;15815;46.760;19.604;2022-09-14T04:07:04;6.65;;;3.50;;
28627;SDS011;15815;46.760;19.604;2022-09-14T04:09:30;6.40;;;3.50;;
28627;SDS011;15815;46.760;19.604;2022-09-14T04:11:55;8.07;;;3.42;;
28627;SDS011;15815;46.760;19.604;2022-09-14T04:14:22;5.88;;;3.22;;
28627;SDS011;15815;46.760;19.604;2022-09-14T04:16:47;18.63;;;3.70;;
28627;SDS011;15815;46.760;19.604;2022-09-14T04:19:13;6.07;;;3.58;;
28627;SDS011;15815;46.760;19.604;2022-09-14T04:21:38;19.85;;;4.65;;
28627;SDS011;15815;46.760;19.604;2022-09-14T04:24:04;6.78;;;3.65;;
28627;SDS011;15815;46.760;19.604;2022-09-14T04:26:29;10.07;;;4.20;;
28627;SDS011;15815;46.760;19.604;2022-09-14T04:28:56;10.35;;;3.55;;
28627;SDS011;15815;46.760;19.604;2022-09-14T04:31:21;7.07;;;4.10;;
28627;SDS011;15815;46.760;19.604;2022-09-14T04:33:47;5.70;;;3.70;;
28627;SDS011;15815;46.760;19.604;2022-09-14T04:36:15;6.10;;;3.63;;
28627;SDS011;15815;46.760;19.604;2022-09-14T04:38:42;9.18;;;3.97;;
28627;SDS011;15815;46.760;19.604;2022-09-14T04:41:09;7.57;;;3.63;;
28627;SDS011;15815;46.760;19.604;2022-09-14T04:43:37;8.43;;;3.83;;
28627;SDS011;15815;46.760;19.604;2022-09-14T04:46:05;8.15;;;3.70;;
28627;SDS011;15815;46.760;19.604;2022-09-14T04:48:33;7.18;;;3.60;;
28627;SDS011;15815;46.760;19.604;2022-09-14T04:51:03;7.30;;;4.05;;
28627;SDS011;15815;46.760;19.604;2022-09-14T04:53:35;7.53;;;3.92;;
28627;SDS011;15815;46.760;19.604;2022-09-14T04:56:02;14.82;;;3.67;;
28627;SDS011;15815;46.760;19.604;2022-09-14T04:58:29;7.32;;;3.80;;
28627;SDS011;15815;46.760;19.604;2022-09-14T05:01:02;8.50;;;3.47;;
28627;SDS011;15815;46.760;19.604;2022-09-14T05:03:29;14.02;;;4.28;;
28627;SDS011;15815;46.760;19.604;2022-09-14T05:05:54;9.57;;;4.15;;
28627;SDS011;15815;46.760;19.604;2022-09-14T05:08:20;5.57;;;3.75;;
28627;SDS011;15815;46.760;19.604;2022-09-14T05:10:45;9.88;;;4.03;;
28627;SDS011;15815;46.760;19.604;2022-09-14T05:13:10;10.23;;;3.75;;
28627;SDS011;15815;46.760;19.604;2022-09-14T05:15:38;6.05;;;3.60;;
28627;SDS011;15815;46.760;19.604;2022-09-14T05:18:03;7.63;;;3.55;;
28627;SDS011;15815;46.760;19.604;2022-09-14T05:20:29;7.03;;;3.70;;
28627;SDS011;15815;46.760;19.604;2022-09-14T05:22:54;7.45;;;3.42;;
28627;SDS011;15815;46.760;19.604;2022-09-14T05:25:19;8.88;;;3.83;;
28627;SDS011;15815;46.760;19.604;2022-09-14T05:27:45;8.60;;;4.07;;
28627;SDS011;15815;46.760;19.604;2022-09-14T05:30:10;9.27;;;3.70;;
28627;SDS011;15815;46.760;19.604;2022-09-14T05:32:36;5.95;;;3.80;;
28627;SDS011;15815;46.760;19.604;2022-09-14T05:35:01;8.35;;;2.80;;
28627;SDS011;15815;46.760;19.604;2022-09-14T05:37:26;8.63;;;4.03;;
28627;SDS011;15815;46.760;19.604;2022-09-14T05:39:52;8.07;;;3.30;;
28627;SDS011;15815;46.760;19.604;2022-09-14T05:42:17;15.80;;;3.97;;
28627;SDS011;15815;46.760;19.604;2022-09-14T05:44:43;7.03;;;3.53;;
28627;SDS011;15815;46.760;19.604;2022-09-14T05:47:08;13.35;;;4.15;;
28627;SDS011;15815;46.760;19.604;2022-09-14T05:49:33;9.07;;;3.97;;
28627;SDS011;15815;46.760;19.604;2022-09-14T05:51:59;9.63;;;4.25;;
28627;SDS011;15815;46.760;19.604;2022-09-14T05:54:24;10.45;;;3.70;;
28627;SDS011;15815;46.760;19.604;2022-09-14T05:56:49;10.45;;;3.50;;
28627;SDS011;15815;46.760;19.604;2022-09-14T05:59:15;6.70;;;3.15;;
28627;SDS011;15815;46.760;19.604;2022-09-14T06:01:40;4.50;;;3.03;;
28627;SDS011;15815;46.760;19.604;2022-09-14T06:04:05;9.27;;;3.38;;
28627;SDS011;15815;46.760;19.604;2022-09-14T06:06:31;5.93;;;3.33;;
28627;SDS011;15815;46.760;19.604;2022-09-14T06:08:57;10.00;;;3.15;;
28627;SDS011;15815;46.760;19.604;2022-09-14T06:11:25;3.25;;;2.72;;
28627;SDS011;15815;46.760;19.604;2022-09-14T06:13:52;7.22;;;3.28;;
28627;SDS011;15815;46.760;19.604;2022-09-14T06:16:19;7.53;;;3.20;;
28627;SDS011;15815;46.760;19.604;2022-09-14T06:18:45;4.43;;;2.80;;
28627;SDS011;15815;46.760;19.604;2022-09-14T06:21:12;8.75;;;3.38;;
28627;SDS011;15815;46.760;19.604;2022-09-14T06:23:40;3.35;;;2.80;;
28627;SDS011;15815;46.760;19.604;2022-09-14T06:26:06;9.20;;;3.60;;
28627;SDS011;15815;46.760;19.604;2022-09-14T06:28:33;9.65;;;2.97;;
28627;SDS011;15815;46.760;19.604;2022-09-14T06:30:59;9.48;;;3.45;;
28627;SDS011;15815;46.760;19.604;2022-09-14T06:33:27;11.13;;;3.50;;
28627;SDS011;15815;46.760;19.604;2022-09-14T06:35:55;7.60;;;2.42;;
28627;SDS011;15815;46.760;19.604;2022-09-14T06:38:22;6.35;;;3.38;;
28627;SDS011;15815;46.760;19.604;2022-09-14T06:40:52;6.53;;;2.97;;
28627;SDS011;15815;46.760;19.604;2022-09-14T06:43:20;8.13;;;2.70;;
28627;SDS011;15815;46.760;19.604;2022-09-14T06:48:22;5.57;;;2.40;;
28627;SDS011;15815;46.760;19.604;2022-09-14T06:53:12;5.40;;;2.30;;
28627;SDS011;15815;46.760;19.604;2022-09-14T06:55:38;11.17;;;2.97;;
28627;SDS011;15815;46.760;19.604;2022-09-14T06:58:03;11.02;;;2.85;;
28627;SDS011;15815;46.760;19.604;2022-09-14T07:00:28;5.40;;;2.95;;
28627;SDS011;15815;46.760;19.604;2022-09-14T07:02:54;5.63;;;3.00;;
28627;SDS011;15815;46.760;19.604;2022-09-14T07:05:19;6.25;;;3.20;;
28627;SDS011;15815;46.760;19.604;2022-09-14T07:07:49;10.82;;;2.78;;
28627;SDS011;15815;46.760;19.604;2022-09-14T07:10:15;7.47;;;3.28;;
28627;SDS011;15815;46.760;19.604;2022-09-14T07:12:40;8.73;;;3.00;;
28627;SDS011;15815;46.760;19.604;2022-09-14T07:15:06;8.75;;;2.80;;
28627;SDS011;15815;46.760;19.604;2022-09-14T07:17:32;6.65;;;3.08;;
28627;SDS011;15815;46.760;19.604;2022-09-14T07:19:57;6.90;;;3.33;;
28627;SDS011;15815;46.760;19.604;2022-09-14T07:22:22;8.75;;;3.35;;
28627;SDS011;15815;46.760;19.604;2022-09-14T07:24:48;9.35;;;2.80;;
28627;SDS011;15815;46.760;19.604;2022-09-14T07:27:13;13.15;;;3.10;;
28627;SDS011;15815;46.760;19.604;2022-09-14T07:29:38;4.63;;;2.70;;
28627;SDS011;15815;46.760;19.604;2022-09-14T07:32:04;5.22;;;2.40;;
28627;SDS011;15815;46.760;19.604;2022-09-14T07:34:29;5.88;;;2.50;;
28627;SDS011;15815;46.760;19.604;2022-09-14T07:36:54;5.95;;;2.92;;
28627;SDS011;15815;46.760;19.604;2022-09-14T07:39:20;5.82;;;3.13;;
28627;SDS011;15815;46.760;19.604;2022-09-14T07:41:45;6.28;;;2.85;;
28627;SDS011;15815;46.760;19.604;2022-09-14T07:44:15;7.53;;;3.08;;
28627;SDS011;15815;46.760;19.604;2022-09-14T07:46:42;10.23;;;2.80;;
28627;SDS011;15815;46.760;19.604;2022-09-14T07:49:09;8.52;;;3.17;;
28627;SDS011;15815;46.760;19.604;2022-09-14T07:51:35;5.63;;;2.95;;
28627;SDS011;15815;46.760;19.604;2022-09-14T07:54:01;7.75;;;2.97;;
28627;SDS011;15815;46.760;19.604;2022-09-14T07:56:27;4.93;;;2.75;;
28627;SDS011;15815;46.760;19.604;2022-09-14T07:58:54;7.13;;;3.72;;
28627;SDS011;15815;46.760;19.604;2022-09-14T08:01:21;7.68;;;3.03;;
28627;SDS011;15815;46.760;19.604;2022-09-14T08:03:47;8.52;;;2.60;;
28627;SDS011;15815;46.760;19.604;2022-09-14T08:06:14;7.35;;;2.95;;
28627;SDS011;15815;46.760;19.604;2022-09-14T08:08:43;6.15;;;3.25;;
28627;SDS011;15815;46.760;19.604;2022-09-14T08:11:09;4.90;;;3.00;;
28627;SDS011;15815;46.760;19.604;2022-09-14T08:13:39;4.15;;;2.92;;
28627;SDS011;15815;46.760;19.604;2022-09-14T08:16:06;7.45;;;2.80;;
28627;SDS011;15815;46.760;19.604;2022-09-14T08:18:33;8.43;;;3.03;;
28627;SDS011;15815;46.760;19.604;2022-09-14T08:21:09;3.58;;;2.80;;
28627;SDS011;15815;46.760;19.604;2022-09-14T08:23:37;11.80;;;3.45;;
28627;SDS011;15815;46.760;19.604;2022-09-14T08:28:28;7.25;;;3.25;;
28627;SDS011;15815;46.760;19.604;2022-09-14T08:30:53;10.95;;;3.20;;
28627;SDS011;15815;46.760;19.604;2022-09-14T08:33:19;9.73;;;3.17;;
28627;SDS011;15815;46.760;19.604;2022-09-14T08:35:44;5.40;;;2.53;;
28627;SDS011;15815;46.760;19.604;2022-09-14T08:38:09;5.78;;;2.53;;
28627;SDS011;15815;46.760;19.604;2022-09-14T08:40:41;4.35;;;2.58;;
28627;SDS011;15815;46.760;19.604;2022-09-14T08:43:09;6.28;;;3.20;;
28627;SDS011;15815;46.760;19.604;2022-09-14T08:45:37;4.85;;;2.75;;
28627;SDS011;15815;46.760;19.604;2022-09-14T08:48:14;7.85;;;3.22;;
28627;SDS011;15815;46.760;19.604;2022-09-14T08:50:49;3.92;;;2.25;;
28627;SDS011;15815;46.760;19.604;2022-09-14T08:53:17;7.95;;;2.88;;
28627;SDS011;15815;46.760;19.604;2022-09-14T08:55:46;2.70;;;1.95;;
28627;SDS011;15815;46.760;19.604;2022-09-14T09:01:25;7.32;;;2.10;;
28627;SDS011;15815;46.760;19.604;2022-09-14T09:04:05;5.35;;;1.95;;
28627;SDS011;15815;46.760;19.604;2022-09-14T09:09:49;4.63;;;2.22;;
28627;SDS011;15815;46.760;19.604;2022-09-14T09:12:21;4.68;;;2.28;;
28627;SDS011;15815;46.760;19.604;2022-09-14T09:14:54;5.40;;;1.73;;
28627;SDS011;15815;46.760;19.604;2022-09-14T09:19:55;5.65;;;2.00;;
28627;SDS011;15815;46.760;19.604;2022-09-14T09:22:42;4.32;;;1.58;;
28627;SDS011;15815;46.760;19.604;2022-09-14T09:25:21;4.07;;;1.60;;
28627;SDS011;15815;46.760;19.604;2022-09-14T09:27:49;4.43;;;1.48;;
28627;SDS011;15815;46.760;19.604;2022-09-14T09:30:18;3.38;;;1.35;;
28627;SDS011;15815;46.760;19.604;2022-09-14T09:32:44;3.78;;;1.35;;
28627;SDS011;15815;46.760;19.604;2022-09-14T09:35:13;4.13;;;1.35;;
28627;SDS011;15815;46.760;19.604;2022-09-14T09:37:42;2.75;;;1.40;;
28627;SDS011;15815;46.760;19.604;2022-09-14T09:40:15;8.68;;;1.73;;
28627;SDS011;15815;46.760;19.604;2022-09-14T09:43:25;7.05;;;1.70;;
28627;SDS011;15815;46.760;19.604;2022-09-14T09:45:45;6.72;;;1.50;;
28627;SDS011;15815;46.760;19.604;2022-09-14T09:48:13;3.40;;;1.23;;
28627;SDS011;15815;46.760;19.604;2022-09-14T09:50:46;18.13;;;2.08;;
28627;SDS011;15815;46.760;19.604;2022-09-14T09:56:20;6.53;;;1.45;;
28627;SDS011;15815;46.760;19.604;2022-09-14T09:58:49;2.45;;;1.20;;
28627;SDS011;15815;46.760;19.604;2022-09-14T10:01:28;3.92;;;1.40;;
28627;SDS011;15815;46.760;19.604;2022-09-14T10:04:08;3.85;;;1.40;;
28627;SDS011;15815;46.760;19.604;2022-09-14T10:06:42;2.45;;;1.48;;
28627;SDS011;15815;46.760;19.604;2022-09-14T10:09:12;4.63;;;1.63;;
28627;SDS011;15815;46.760;19.604;2022-09-14T10:11:40;1.60;;;1.50;;
28627;SDS011;15815;46.760;19.604;2022-09-14T10:14:19;3.75;;;1.40;;
28627;SDS011;15815;46.760;19.604;2022-09-14T10:17:21;4.03;;;1.80;;
28627;SDS011;15815;46.760;19.604;2022-09-14T10:19:48;3.35;;;1.58;;
28627;SDS011;15815;46.760;19.604;2022-09-14T10:25:02;6.85;;;1.75;;
28627;SDS011;15815;46.760;19.604;2022-09-14T10:30:12;12.95;;;1.75;;
28627;SDS011;15815;46.760;19.604;2022-09-14T10:32:42;4.50;;;1.90;;
28627;SDS011;15815;46.760;19.604;2022-09-14T10:35:13;3.60;;;1.40;;
28627;SDS011;15815;46.760;19.604;2022-09-14T10:37:48;5.55;;;1.45;;
28627;SDS011;15815;46.760;19.604;2022-09-14T10:40:30;7.57;;;1.40;;
28627;SDS011;15815;46.760;19.604;2022-09-14T10:43:02;2.50;;;1.65;;
28627;SDS011;15815;46.760;19.604;2022-09-14T10:45:40;2.88;;;1.52;;
28627;SDS011;15815;46.760;19.604;2022-09-14T11:05:05;7.95;;;1.88;;
28627;SDS011;15815;46.760;19.604;2022-09-14T11:07:55;11.43;;;1.98;;
28627;SDS011;15815;46.760;19.604;2022-09-14T11:13:46;6.35;;;1.65;;
28627;SDS011;15815;46.760;19.604;2022-09-14T11:27:42;7.20;;;1.70;;
28627;SDS011;15815;46.760;19.604;2022-09-14T11:38:14;9.50;;;1.83;;
28627;SDS011;15815;46.760;19.604;2022-09-14T11:43:49;3.88;;;1.48;;
28627;SDS011;15815;46.760;19.604;2022-09-14T11:46:30;2.97;;;1.55;;
28627;SDS011;15815;46.760;19.604;2022-09-14T11:49:00;14.82;;;1.63;;
28627;SDS011;15815;46.760;19.604;2022-09-14T11:51:39;4.40;;;1.83;;
28627;SDS011;15815;46.760;19.604;2022-09-14T11:54:12;9.60;;;2.10;;
28627;SDS011;15815;46.760;19.604;2022-09-14T11:56:42;5.05;;;1.83;;
28627;SDS011;15815;46.760;19.604;2022-09-14T11:59:32;10.00;;;2.33;;
28627;SDS011;15815;46.760;19.604;2022-09-14T12:05:23;3.08;;;1.60;;
28627;SDS011;15815;46.760;19.604;2022-09-14T12:18:34;5.45;;;1.40;;
28627;SDS011;15815;46.760;19.604;2022-09-14T12:20:47;8.40;;;1.40;;
28627;SDS011;15815;46.760;19.604;2022-09-14T12:40:53;6.63;;;2.22;;
28627;SDS011;15815;46.760;19.604;2022-09-14T12:46:04;7.72;;;1.60;;
28627;SDS011;15815;46.760;19.604;2022-09-14T12:57:18;5.35;;;1.83;;
28627;SDS011;15815;46.760;19.604;2022-09-14T13:02:28;4.72;;;1.80;;
28627;SDS011;15815;46.760;19.604;2022-09-14T13:05:00;9.77;;;1.92;;
28627;SDS011;15815;46.760;19.604;2022-09-14T13:07:29;14.15;;;2.00;;
28627;SDS011;15815;46.760;19.604;2022-09-14T13:09:57;9.25;;;2.22;;
28627;SDS011;15815;46.760;19.604;2022-09-14T13:12:33;7.43;;;2.22;;
28627;SDS011;15815;46.760;19.604;2022-09-14T13:15:04;12.35;;;2.13;;
28627;SDS011;15815;46.760;19.604;2022-09-14T13:17:53;6.82;;;2.28;;
28627;SDS011;15815;46.760;19.604;2022-09-14T13:20:30;6.13;;;2.08;;
28627;SDS011;15815;46.760;19.604;2022-09-14T13:22:58;9.80;;;1.73;;
28627;SDS011;15815;46.760;19.604;2022-09-14T13:25:30;7.40;;;1.95;;
28627;SDS011;15815;46.760;19.604;2022-09-14T13:28:05;15.35;;;2.20;;
28627;SDS011;15815;46.760;19.604;2022-09-14T13:30:37;12.55;;;2.47;;
28627;SDS011;15815;46.760;19.604;2022-09-14T13:33:06;15.15;;;2.20;;
28627;SDS011;15815;46.760;19.604;2022-09-14T13:35:44;18.92;;;2.45;;
28627;SDS011;15815;46.760;19.604;2022-09-14T13:38:17;15.63;;;2.47;;
28627;SDS011;15815;46.760;19.604;2022-09-14T13:40:45;19.20;;;2.33;;
28627;SDS011;15815;46.760;19.604;2022-09-14T13:43:14;18.90;;;2.60;;
28627;SDS011;15815;46.760;19.604;2022-09-14T13:45:41;11.88;;;2.17;;
28627;SDS011;15815;46.760;19.604;2022-09-14T13:48:06;13.10;;;2.28;;
28627;SDS011;15815;46.760;19.604;2022-09-14T13:50:32;15.32;;;2.28;;
28627;SDS011;15815;46.760;19.604;2022-09-14T13:52:58;6.65;;;2.20;;
28627;SDS011;15815;46.760;19.604;2022-09-14T13:55:27;12.18;;;2.58;;
28627;SDS011;15815;46.760;19.604;2022-09-14T14:00:54;30.58;;;3.20;;
28627;SDS011;15815;46.760;19.604;2022-09-14T14:03:29;8.57;;;2.22;;
28627;SDS011;15815;46.760;19.604;2022-09-14T14:05:55;10.57;;;2.10;;
28627;SDS011;15815;46.760;19.604;2022-09-14T14:08:29;9.50;;;2.30;;
28627;SDS011;15815;46.760;19.604;2022-09-14T14:11:01;13.93;;;2.05;;
28627;SDS011;15815;46.760;19.604;2022-09-14T14:13:30;12.07;;;2.30;;
28627;SDS011;15815;46.760;19.604;2022-09-14T14:18:42;12.23;;;2.40;;
28627;SDS011;15815;46.760;19.604;2022-09-14T14:23:45;13.02;;;2.15;;
28627;SDS011;15815;46.760;19.604;2022-09-14T14:26:12;14.48;;;2.60;;
28627;SDS011;15815;46.760;19.604;2022-09-14T14:28:41;12.20;;;2.08;;
28627;SDS011;15815;46.760;19.604;2022-09-14T14:31:11;10.02;;;2.33;;
28627;SDS011;15815;46.760;19.604;2022-09-14T14:33:50;13.00;;;2.20;;
28627;SDS011;15815;46.760;19.604;2022-09-14T14:36:17;11.23;;;2.20;;
28627;SDS011;15815;46.760;19.604;2022-09-14T14:38:43;6.82;;;1.83;;
28627;SDS011;15815;46.760;19.604;2022-09-14T14:41:13;6.60;;;2.03;;
28627;SDS011;15815;46.760;19.604;2022-09-14T14:43:41;20.05;;;2.42;;
28627;SDS011;15815;46.760;19.604;2022-09-14T14:46:10;6.35;;;2.42;;
28627;SDS011;15815;46.760;19.604;2022-09-14T14:48:36;10.23;;;2.38;;
28627;SDS011;15815;46.760;19.604;2022-09-14T14:51:01;24.02;;;2.33;;
28627;SDS011;15815;46.760;19.604;2022-09-14T14:53:26;18.05;;;2.45;;
28627;SDS011;15815;46.760;19.604;2022-09-14T14:55:52;10.60;;;2.05;;
28627;SDS011;15815;46.760;19.604;2022-09-14T14:58:18;11.68;;;1.85;;
28627;SDS011;15815;46.760;19.604;2022-09-14T15:00:45;10.50;;;2.38;;
28627;SDS011;15815;46.760;19.604;2022-09-14T15:03:11;6.93;;;1.95;;
28627;SDS011;15815;46.760;19.604;2022-09-14T15:05:41;12.10;;;2.67;;
28627;SDS011;15815;46.760;19.604;2022-09-14T15:08:08;7.18;;;2.42;;
28627;SDS011;15815;46.760;19.604;2022-09-14T15:10:35;3.97;;;2.03;;
28627;SDS011;15815;46.760;19.604;2022-09-14T15:13:00;5.18;;;2.22;;
28627;SDS011;15815;46.760;19.604;2022-09-14T15:15:25;10.27;;;2.00;;
28627;SDS011;15815;46.760;19.604;2022-09-14T15:17:51;10.65;;;2.40;;
28627;SDS011;15815;46.760;19.604;2022-09-14T15:20:17;8.80;;;2.22;;
28627;SDS011;15815;46.760;19.604;2022-09-14T15:22:43;12.75;;;2.20;;
28627;SDS011;15815;46.760;19.604;2022-09-14T15:25:10;11.38;;;2.13;;
28627;SDS011;15815;46.760;19.604;2022-09-14T15:27:36;18.50;;;3.08;;
28627;SDS011;15815;46.760;19.604;2022-09-14T15:30:02;8.63;;;2.47;;
28627;SDS011;15815;46.760;19.604;2022-09-14T15:32:29;7.65;;;2.22;;
28627;SDS011;15815;46.760;19.604;2022-09-14T15:34:54;15.18;;;3.03;;
28627;SDS011;15815;46.760;19.604;2022-09-14T15:37:20;24.65;;;2.72;;
28627;SDS011;15815;46.760;19.604;2022-09-14T15:39:45;8.18;;;1.90;;
28627;SDS011;15815;46.760;19.604;2022-09-14T15:42:11;8.57;;;1.70;;
28627;SDS011;15815;46.760;19.604;2022-09-14T15:44:37;9.70;;;2.55;;
28627;SDS011;15815;46.760;19.604;2022-09-14T15:47:02;15.70;;;2.10;;
28627;SDS011;15815;46.760;19.604;2022-09-14T15:49:28;10.57;;;2.38;;
28627;SDS011;15815;46.760;19.604;2022-09-14T15:51:54;22.40;;;2.72;;
28627;SDS011;15815;46.760;19.604;2022-09-14T15:54:21;7.80;;;2.17;;
28627;SDS011;15815;46.760;19.604;2022-09-14T15:56:50;15.43;;;2.45;;
28627;SDS011;15815;46.760;19.604;2022-09-14T15:59:19;6.57;;;1.70;;
28627;SDS011;15815;46.760;19.604;2022-09-14T16:01:45;6.78;;;2.00;;
28627;SDS011;15815;46.760;19.604;2022-09-14T16:04:10;10.20;;;2.10;;
28627;SDS011;15815;46.760;19.604;2022-09-14T16:06:36;13.30;;;2.55;;
28627;SDS011;15815;46.760;19.604;2022-09-14T16:09:03;8.00;;;1.95;;
28627;SDS011;15815;46.760;19.604;2022-09-14T16:11:30;6.93;;;1.58;;
28627;SDS011;15815;46.760;19.604;2022-09-14T16:13:57;4.55;;;1.83;;
28627;SDS011;15815;46.760;19.604;2022-09-14T16:16:22;18.63;;;2.53;;
28627;SDS011;15815;46.760;19.604;2022-09-14T16:18:48;18.95;;;2.60;;
28627;SDS011;15815;46.760;19.604;2022-09-14T16:21:20;8.90;;;1.98;;
28627;SDS011;15815;46.760;19.604;2022-09-14T16:23:48;7.95;;;1.92;;
28627;SDS011;15815;46.760;19.604;2022-09-14T16:26:23;9.20;;;2.10;;
28627;SDS011;15815;46.760;19.604;2022-09-14T16:28:51;11.60;;;1.88;;
28627;SDS011;15815;46.760;19.604;2022-09-14T16:31:18;3.53;;;1.60;;
28627;SDS011;15815;46.760;19.604;2022-09-14T16:33:51;7.93;;;2.22;;
28627;SDS011;15815;46.760;19.604;2022-09-14T16:36:19;8.95;;;2.20;;
28627;SDS011;15815;46.760;19.604;2022-09-14T16:38:48;14.65;;;2.25;;
28627;SDS011;15815;46.760;19.604;2022-09-14T16:41:14;16.63;;;2.25;;
28627;SDS011;15815;46.760;19.604;2022-09-14T16:43:40;8.18;;;2.00;;
28627;SDS011;15815;46.760;19.604;2022-09-14T16:46:10;11.00;;;2.05;;
28627;SDS011;15815;46.760;19.604;2022-09-14T16:48:46;18.73;;;1.95;;
28627;SDS011;15815;46.760;19.604;2022-09-14T16:51:14;7.63;;;2.00;;
28627;SDS011;15815;46.760;19.604;2022-09-14T16:53:41;13.32;;;2.10;;
28627;SDS011;15815;46.760;19.604;2022-09-14T16:56:10;7.55;;;2.25;;
28627;SDS011;15815;46.760;19.604;2022-09-14T16:58:37;9.98;;;2.33;;
28627;SDS011;15815;46.760;19.604;2022-09-14T17:08:55;6.95;;;2.13;;
28627;SDS011;15815;46.760;19.604;2022-09-14T17:11:24;4.75;;;1.67;;
28627;SDS011;15815;46.760;19.604;2022-09-14T17:13:51;5.32;;;2.08;;
28627;SDS011;15815;46.760;19.604;2022-09-14T17:16:17;8.05;;;1.88;;
28627;SDS011;15815;46.760;19.604;2022-09-14T17:18:45;7.30;;;2.03;;
28627;SDS011;15815;46.760;19.604;2022-09-14T17:21:15;13.77;;;2.83;;
28627;SDS011;15815;46.760;19.604;2022-09-14T17:23:48;11.38;;;2.90;;
28627;SDS011;15815;46.760;19.604;2022-09-14T17:26:14;6.75;;;2.60;;
28627;SDS011;15815;46.760;19.604;2022-09-14T17:28:45;6.53;;;2.10;;